createdAt,value
2022-10-11T00:00:34.548Z,15.34
2022-10-11T00:03:03.141Z,15.33
2022-10-11T00:05:31.058Z,15.32
2022-10-11T00:08:00.224Z,15.29
2022-10-11T00:10:28.138Z,15.27
2022-10-11T00:12:55.987Z,15.26
2022-10-11T00:15:25.848Z,15.21
2022-10-11T00:17:53.708Z,15.19
2022-10-11T00:20:22.373Z,15.12
2022-10-11T00:22:50.402Z,15.07
2022-10-11T00:25:19.198Z,15.04
2022-10-11T00:27:47.140Z,15.01
2022-10-11T00:30:15.203Z,14.99
2022-10-11T00:32:44.680Z,14.97
2022-10-11T00:35:12.556Z,14.95
2022-10-11T00:37:40.904Z,14.94
2022-10-11T00:40:14.204Z,14.90
2022-10-11T00:42:42.167Z,14.87
2022-10-11T00:45:56.252Z,14.83
2022-10-11T00:48:30.847Z,14.82
2022-10-11T00:51:01.899Z,14.81
2022-10-11T00:53:31.807Z,14.79
2022-10-11T00:56:07.012Z,14.73
2022-10-11T00:58:37.458Z,14.69
2022-10-11T01:01:05.559Z,14.65
2022-10-11T01:03:38.190Z,14.65
2022-10-11T01:06:06.956Z,14.61
2022-10-11T01:08:35.496Z,14.60
2022-10-11T01:11:03.793Z,14.57
2022-10-11T01:13:42.811Z,14.55
2022-10-11T01:16:17.002Z,14.54
2022-10-11T01:18:56.336Z,14.54
2022-10-11T01:21:36.170Z,14.50
2022-10-11T01:24:31.252Z,14.46
2022-10-11T01:27:30.716Z,14.46
2022-10-11T01:30:08.400Z,14.43
2022-10-11T01:32:47.730Z,14.43
2022-10-11T01:35:22.670Z,14.39
2022-10-11T01:37:56.963Z,14.38
2022-10-11T01:40:28.646Z,14.36
2022-10-11T01:42:58.718Z,14.35
2022-10-11T01:45:26.747Z,14.37
2022-10-11T01:48:05.848Z,14.38
2022-10-11T01:50:46.213Z,14.39
2022-10-11T01:53:41.210Z,14.38
2022-10-11T01:56:21.928Z,14.39
2022-10-11T01:59:03.556Z,14.42
2022-10-11T02:01:44.235Z,14.45
2022-10-11T02:04:21.474Z,14.48
2022-10-11T02:07:00.307Z,14.48
2022-10-11T02:09:33.870Z,14.49
2022-10-11T02:12:07.382Z,14.48
2022-10-11T02:14:41.459Z,14.50
2022-10-11T02:17:13.853Z,14.53
2022-10-11T02:19:46.604Z,14.55
2022-10-11T02:22:19.537Z,14.58
2022-10-11T02:24:51.448Z,14.57
2022-10-11T02:27:23.988Z,14.61
2022-10-11T02:29:55.028Z,14.62
2022-10-11T02:32:26.743Z,14.61
2022-10-11T02:34:58.656Z,14.61
2022-10-11T02:37:32.629Z,14.63
2022-10-11T02:40:07.807Z,14.64
2022-10-11T02:42:39.946Z,14.62
2022-10-11T02:45:14.265Z,14.63
2022-10-11T02:47:43.577Z,14.63
2022-10-11T02:50:14.303Z,14.64
2022-10-11T02:52:42.253Z,14.65
2022-10-11T02:55:11.489Z,14.66
2022-10-11T02:57:40.428Z,14.69
2022-10-11T03:00:09.230Z,14.68
2022-10-11T03:02:37.103Z,14.69
2022-10-11T03:05:05.593Z,14.68
2022-10-11T03:07:34.847Z,14.68
2022-10-11T03:10:02.730Z,14.68
2022-10-11T03:12:30.876Z,14.68
2022-10-11T03:14:58.981Z,14.68
2022-10-11T03:17:42.829Z,14.69
2022-10-11T03:20:11.272Z,14.65
2022-10-11T03:22:42.229Z,14.62
2022-10-11T03:25:10.981Z,14.63
2022-10-11T03:27:38.803Z,14.64
2022-10-11T03:30:10.050Z,14.66
2022-10-11T03:32:38.213Z,14.65
2022-10-11T03:35:07.368Z,14.65
2022-10-11T03:37:35.273Z,14.67
2022-10-11T03:40:05.129Z,14.63
2022-10-11T03:42:32.926Z,14.61
2022-10-11T03:45:04.750Z,14.62
2022-10-11T03:47:32.711Z,14.57
2022-10-11T03:50:00.521Z,14.56
2022-10-11T03:52:28.350Z,14.54
2022-10-11T03:54:56.365Z,14.54
2022-10-11T03:57:25.580Z,14.50
2022-10-11T03:59:53.453Z,14.53
2022-10-11T04:02:21.444Z,14.51
2022-10-11T04:04:49.315Z,14.53
2022-10-11T04:07:17.231Z,14.55
2022-10-11T04:09:45.212Z,14.56
2022-10-11T04:12:13.394Z,14.57
2022-10-11T04:14:42.663Z,14.59
2022-10-11T04:17:11.045Z,14.60
2022-10-11T04:19:38.859Z,14.59
2022-10-11T04:22:07.057Z,14.60
2022-10-11T04:24:35.335Z,14.62
2022-10-11T04:27:03.194Z,14.62
2022-10-11T04:29:32.749Z,14.64
2022-10-11T04:32:02.241Z,14.64
2022-10-11T04:34:30.155Z,14.64
2022-10-11T04:36:58.155Z,14.62
2022-10-11T04:39:25.953Z,14.61
2022-10-11T04:41:53.766Z,14.58
2022-10-11T04:44:21.916Z,14.57
2022-10-11T04:46:49.801Z,14.56
2022-10-11T04:49:18.976Z,14.58
2022-10-11T04:51:46.798Z,14.50
2022-10-11T04:54:14.746Z,14.48
2022-10-11T04:56:42.763Z,14.47
2022-10-11T04:59:10.816Z,14.40
2022-10-11T05:01:38.710Z,14.39
2022-10-11T05:04:06.824Z,14.35
2022-10-11T05:06:36.013Z,14.34
2022-10-11T05:09:05.913Z,14.35
2022-10-11T05:11:33.727Z,14.32
2022-10-11T05:14:01.579Z,14.32
2022-10-11T05:16:29.524Z,14.25
2022-10-11T05:18:57.321Z,14.26
2022-10-11T05:21:26.464Z,14.26
2022-10-11T05:23:57.212Z,14.29
2022-10-11T05:26:27.821Z,14.33
2022-10-11T05:28:56.617Z,14.36
2022-10-11T05:31:24.613Z,14.34
2022-10-11T05:33:52.777Z,14.37
2022-10-11T05:36:20.694Z,14.38
2022-10-11T05:38:48.879Z,14.40
2022-10-11T05:41:18.753Z,14.36
2022-10-11T05:43:46.709Z,14.34
2022-10-11T05:46:14.735Z,14.39
2022-10-11T05:48:43.016Z,14.32
2022-10-11T05:51:12.420Z,14.30
2022-10-11T05:53:40.466Z,14.35
2022-10-11T05:56:21.230Z,14.25
2022-10-11T05:58:49.108Z,14.23
2022-10-11T06:01:19.309Z,14.22
2022-10-11T06:03:47.169Z,14.19
2022-10-11T06:06:15.223Z,14.19
2022-10-11T06:08:43.341Z,14.21
2022-10-11T06:11:13.358Z,14.22
2022-10-11T06:13:43.069Z,14.22
2022-10-11T06:16:11.733Z,14.25
2022-10-11T06:18:39.639Z,14.25
2022-10-11T06:21:07.855Z,14.26
2022-10-11T06:23:36.081Z,14.28
2022-10-11T06:26:07.551Z,14.31
2022-10-11T06:28:37.340Z,14.29
2022-10-11T06:31:07.926Z,14.31
2022-10-11T06:33:36.348Z,14.33
2022-10-11T06:36:07.770Z,14.35
2022-10-11T06:38:36.699Z,14.38
2022-10-11T06:41:14.047Z,14.32
2022-10-11T06:43:41.901Z,14.32
2022-10-11T06:46:11.745Z,14.33
2022-10-11T06:48:41.415Z,14.37
2022-10-11T06:51:09.600Z,14.36
2022-10-11T06:53:39.031Z,14.35
2022-10-11T06:56:10.135Z,14.35
2022-10-11T06:58:38.293Z,14.31
2022-10-11T07:01:08.668Z,14.35
2022-10-11T07:03:38.269Z,14.37
2022-10-11T07:06:09.207Z,14.41
2022-10-11T07:08:38.053Z,14.43
2022-10-11T07:11:07.960Z,14.45
2022-10-11T07:13:36.377Z,14.48
2022-10-11T07:16:05.215Z,14.49
2022-10-11T07:18:33.705Z,14.51
2022-10-11T07:21:06.403Z,14.53
2022-10-11T07:23:34.648Z,14.56
2022-10-11T07:26:02.778Z,14.59
2022-10-11T07:28:31.627Z,14.63
2022-10-11T07:31:00.286Z,14.66
2022-10-11T07:33:28.296Z,14.70
2022-10-11T07:35:58.995Z,14.71
2022-10-11T07:38:28.741Z,14.72
2022-10-11T07:40:56.677Z,14.74
2022-10-11T07:43:24.991Z,14.78
2022-10-11T07:45:55.650Z,14.77
2022-10-11T07:48:23.798Z,14.80
2022-10-11T07:50:51.677Z,14.84
2022-10-11T07:53:19.842Z,14.77
2022-10-11T07:55:49.322Z,14.76
2022-10-11T07:58:17.188Z,14.82
2022-10-11T08:00:45.359Z,14.78
2022-10-11T08:03:14.060Z,14.82
2022-10-11T08:05:42.078Z,14.82
2022-10-11T08:08:09.885Z,14.88
2022-10-11T08:10:39.465Z,14.89
2022-10-11T08:13:08.760Z,14.89
2022-10-11T08:15:36.979Z,14.91
2022-10-11T08:18:08.395Z,14.94
2022-10-11T08:20:36.316Z,15.02
2022-10-11T08:23:04.184Z,15.12
2022-10-11T08:25:32.091Z,14.99
2022-10-11T08:28:00.135Z,14.98
2022-10-11T08:30:29.718Z,15.05
2022-10-11T08:32:57.606Z,15.00
2022-10-11T08:35:25.481Z,14.91
2022-10-11T08:37:53.810Z,14.91
2022-10-11T08:40:23.205Z,14.95
2022-10-11T08:42:59.482Z,15.04
2022-10-11T08:45:34.295Z,14.94
2022-10-11T08:48:14.781Z,15.01
2022-10-11T08:50:45.995Z,14.91
2022-10-11T08:53:20.146Z,14.88
2022-10-11T08:55:52.444Z,14.88
2022-10-11T08:58:24.310Z,14.85
2022-10-11T09:00:56.617Z,14.95
2022-10-11T09:03:30.828Z,14.87
2022-10-11T09:06:09.965Z,14.88
2022-10-11T09:08:57.399Z,14.91
2022-10-11T09:11:40.371Z,14.92
2022-10-11T09:14:23.398Z,14.98
2022-10-11T09:17:02.625Z,14.94
2022-10-11T09:20:05.733Z,14.97
2022-10-11T09:22:43.666Z,15.07
2022-10-11T09:25:24.232Z,15.03
2022-10-11T09:28:06.446Z,15.08
2022-10-11T09:30:35.197Z,15.09
2022-10-11T09:33:14.883Z,15.05
2022-10-11T09:35:47.268Z,15.19
2022-10-11T09:38:25.733Z,15.17
2022-10-11T09:41:04.337Z,15.19
2022-10-11T09:43:32.732Z,15.23
2022-10-11T09:46:01.054Z,15.19
2022-10-11T09:48:39.800Z,15.27
2022-10-11T09:51:13.986Z,15.29
2022-10-11T09:53:57.933Z,15.34
2022-10-11T09:56:27.532Z,15.46
2022-10-11T09:59:26.746Z,15.43
2022-10-11T10:02:21.257Z,15.52
2022-10-11T10:05:15.596Z,15.71
2022-10-11T10:08:04.485Z,15.80
2022-10-11T10:10:38.615Z,15.81
2022-10-11T10:13:18.006Z,15.97
2022-10-11T10:15:48.232Z,16.07
2022-10-11T10:18:23.746Z,16.14
2022-10-11T10:20:59.519Z,16.10
2022-10-11T10:23:30.440Z,16.17
2022-10-11T10:26:12.875Z,16.22
2022-10-11T10:28:54.803Z,16.20
2022-10-11T10:31:24.475Z,16.22
2022-10-11T10:33:55.717Z,16.25
2022-10-11T10:36:29.724Z,16.41
2022-10-11T10:39:03.575Z,16.37
2022-10-11T10:41:31.439Z,16.48
2022-10-11T10:44:00.713Z,16.42
2022-10-11T10:46:54.319Z,16.35
2022-10-11T10:52:45.627Z,16.19
2022-10-11T10:55:23.493Z,16.30
2022-10-11T10:58:03.635Z,16.32
2022-10-11T11:00:40.075Z,16.29
2022-10-11T11:03:14.896Z,16.33
2022-10-11T11:05:49.433Z,16.24
2022-10-11T11:08:32.265Z,16.23
2022-10-11T11:11:12.304Z,16.23
2022-10-11T11:13:50.571Z,16.24
2022-10-11T11:16:25.253Z,16.28
2022-10-11T11:18:59.267Z,16.26
2022-10-11T11:21:41.723Z,16.26
2022-10-11T11:24:16.903Z,16.38
2022-10-11T11:26:52.334Z,16.36
2022-10-11T11:29:36.162Z,16.39
2022-10-11T11:32:15.104Z,16.42
2022-10-11T11:34:48.092Z,16.40
2022-10-11T11:37:26.184Z,16.43
2022-10-11T11:40:00.689Z,16.43
2022-10-11T11:42:36.410Z,16.44
2022-10-11T11:45:14.453Z,16.51
2022-10-11T11:47:48.193Z,16.50
2022-10-11T11:50:22.565Z,16.53
2022-10-11T11:52:55.661Z,16.50
2022-10-11T11:55:32.651Z,16.54
2022-10-11T11:58:13.886Z,16.59
2022-10-11T12:00:53.888Z,16.52
2022-10-11T12:03:27.891Z,16.48
2022-10-11T12:06:21.236Z,16.47
2022-10-11T12:08:56.813Z,16.53
2022-10-11T12:11:34.528Z,16.45
2022-10-11T12:14:17.617Z,16.44
2022-10-11T12:17:17.433Z,16.41
2022-10-11T12:20:03.005Z,16.43
2022-10-11T12:22:56.184Z,16.46
2022-10-11T12:25:40.885Z,16.43
2022-10-11T12:29:00.920Z,16.50
2022-10-11T12:31:30.805Z,16.51
2022-10-11T12:34:20.684Z,16.46
2022-10-11T12:36:50.263Z,16.49
2022-10-11T12:39:52.819Z,16.59
2022-10-11T12:42:30.468Z,16.60
2022-10-11T12:45:32.415Z,16.62
2022-10-11T12:48:21.887Z,16.71
2022-10-11T12:51:03.232Z,16.73
2022-10-11T12:54:21.465Z,16.74
2022-10-11T12:56:50.314Z,16.80
2022-10-11T12:59:21.109Z,16.84
2022-10-11T13:01:53.181Z,16.97
2022-10-11T13:04:23.494Z,17.04
2022-10-11T13:06:57.356Z,17.11
2022-10-11T13:09:31.160Z,17.18
2022-10-11T13:12:04.194Z,17.22
2022-10-11T13:14:37.059Z,17.25
2022-10-11T13:17:18.332Z,17.32
2022-10-11T13:19:46.215Z,17.44
2022-10-11T13:22:19.967Z,17.63
2022-10-11T13:24:48.007Z,17.69
2022-10-11T13:27:21.681Z,17.75
2022-10-11T13:29:51.630Z,17.66
2022-10-11T13:32:23.784Z,17.65
2022-10-11T13:37:31.278Z,17.53
2022-10-11T13:39:59.780Z,17.53
2022-10-11T13:42:30.663Z,17.38
2022-10-11T13:44:59.445Z,17.30
2022-10-11T13:47:31.724Z,17.34
2022-10-11T13:50:12.282Z,17.21
2022-10-11T13:52:54.699Z,17.16
2022-10-11T13:55:29.621Z,17.21
2022-10-11T13:57:59.703Z,17.21
2022-10-11T14:00:33.387Z,17.22
2022-10-11T14:03:06.349Z,17.25
2022-10-11T14:05:38.172Z,17.30
2022-10-11T14:08:08.845Z,17.47
2022-10-11T14:10:37.127Z,17.49
2022-10-11T14:13:24.228Z,17.50
2022-10-11T14:16:04.058Z,17.45
2022-10-11T14:18:46.148Z,17.40
2022-10-11T14:21:29.300Z,17.41
2022-10-11T14:23:59.527Z,17.50
2022-10-11T14:26:32.122Z,17.50
2022-10-11T14:29:03.343Z,17.38
2022-10-11T14:31:31.597Z,17.31
2022-10-11T14:34:00.988Z,17.24
2022-10-11T14:36:28.916Z,17.18
2022-10-11T14:38:56.828Z,17.17
2022-10-11T14:41:24.760Z,17.20
2022-10-11T14:43:56.451Z,17.26
2022-10-11T14:46:27.389Z,17.22
2022-10-11T14:48:56.746Z,17.21
2022-10-11T14:51:31.126Z,17.21
2022-10-11T14:53:59.401Z,17.25
2022-10-11T14:56:27.348Z,17.17
2022-10-11T14:58:55.218Z,17.15
2022-10-11T15:01:23.151Z,17.02
2022-10-11T15:03:51.349Z,16.90
2022-10-11T15:06:21.103Z,16.91
2022-10-11T15:08:50.551Z,16.85
2022-10-11T15:11:20.613Z,16.82
2022-10-11T15:13:49.701Z,16.80
2022-10-11T15:16:21.014Z,16.71
2022-10-11T15:18:51.042Z,16.58
2022-10-11T15:21:20.878Z,16.51
2022-10-11T15:23:51.699Z,16.56
2022-10-11T15:26:21.390Z,16.44
2022-10-11T15:28:50.292Z,16.48
2022-10-11T15:31:18.964Z,16.42
2022-10-11T15:33:46.874Z,16.44
2022-10-11T15:36:17.259Z,16.43
2022-10-11T15:38:46.212Z,16.49
2022-10-11T15:41:19.016Z,16.46
2022-10-11T15:43:48.630Z,16.39
2022-10-11T15:46:18.347Z,16.37
2022-10-11T15:48:47.070Z,16.38
2022-10-11T15:51:15.286Z,16.34
2022-10-11T15:53:43.217Z,16.31
2022-10-11T15:56:16.894Z,16.27
2022-10-11T15:58:44.929Z,16.23
2022-10-11T16:01:15.639Z,16.22
2022-10-11T16:03:44.270Z,16.20
2022-10-11T16:06:13.115Z,16.27
2022-10-11T16:08:41.663Z,16.17
2022-10-11T16:11:10.916Z,16.17
2022-10-11T16:13:40.491Z,16.10
2022-10-11T16:16:10.448Z,16.04
2022-10-11T16:18:39.117Z,16.01
2022-10-11T16:21:09.006Z,15.95
2022-10-11T16:23:37.808Z,15.92
2022-10-11T16:26:07.981Z,15.90
2022-10-11T16:28:36.577Z,15.89
2022-10-11T16:31:09.576Z,15.89
2022-10-11T16:33:45.508Z,15.85
2022-10-11T16:36:35.986Z,15.78
2022-10-11T16:39:07.141Z,15.72
2022-10-11T16:41:34.986Z,15.67
2022-10-11T16:44:02.809Z,15.67
2022-10-11T16:46:32.293Z,15.63
2022-10-11T16:49:00.422Z,15.59
2022-10-11T16:51:28.488Z,15.56
2022-10-11T16:53:56.355Z,15.52
2022-10-11T16:56:25.115Z,15.48
2022-10-11T16:58:53.858Z,15.45
2022-10-11T17:01:21.966Z,15.40
2022-10-11T17:03:51.863Z,15.32
2022-10-11T17:06:20.293Z,15.29
2022-10-11T17:08:48.347Z,15.24
2022-10-11T17:11:17.790Z,15.15
2022-10-11T17:13:46.066Z,15.12
2022-10-11T17:16:14.366Z,15.06
2022-10-11T17:18:42.556Z,14.99
2022-10-11T17:21:15.357Z,14.96
2022-10-11T17:23:43.444Z,14.87
2022-10-11T17:26:15.286Z,14.82
2022-10-11T17:28:43.466Z,14.77
2022-10-11T17:31:12.046Z,14.74
2022-10-11T17:33:40.117Z,14.72
2022-10-11T17:39:02.730Z,14.68
2022-10-11T17:41:32.528Z,14.64
2022-10-11T17:44:01.164Z,14.59
2022-10-11T17:46:35.367Z,14.54
2022-10-11T17:49:05.825Z,14.50
2022-10-11T17:51:34.189Z,14.45
2022-10-11T17:54:04.848Z,14.43
2022-10-11T17:56:37.663Z,14.41
2022-10-11T17:59:06.382Z,14.37
2022-10-11T18:01:34.355Z,14.32
2022-10-11T18:04:06.634Z,14.32
2022-10-11T18:06:40.241Z,14.28
2022-10-11T18:09:09.430Z,14.24
2022-10-11T18:11:37.182Z,14.20
2022-10-11T18:14:06.697Z,14.14
2022-10-11T18:16:37.391Z,14.10
2022-10-11T18:19:06.672Z,14.09
2022-10-11T18:21:36.763Z,14.09
2022-10-11T18:24:07.725Z,14.12
2022-10-11T18:26:38.153Z,14.12
2022-10-11T18:29:06.948Z,14.14
2022-10-11T18:31:37.931Z,14.16
2022-10-11T18:34:10.290Z,14.21
2022-10-11T18:36:38.888Z,14.18
2022-10-11T18:39:10.321Z,14.20
2022-10-11T18:41:45.334Z,14.22
2022-10-11T18:44:15.993Z,14.25
2022-10-11T18:46:50.286Z,14.27
2022-10-11T18:49:20.575Z,14.28
2022-10-11T18:51:48.680Z,14.28
2022-10-11T18:54:26.163Z,14.31
2022-10-11T18:56:59.150Z,14.25
2022-10-11T18:59:29.973Z,14.24
2022-10-11T19:02:01.972Z,14.21
2022-10-11T19:04:35.173Z,14.19
2022-10-11T19:07:12.445Z,14.22
2022-10-11T19:09:40.494Z,14.22
2022-10-11T19:12:09.988Z,14.23
2022-10-11T19:14:44.699Z,14.25
2022-10-11T19:17:34.747Z,14.24
2022-10-11T19:20:22.681Z,14.24
2022-10-11T19:22:57.185Z,14.25
2022-10-11T19:25:29.038Z,14.25
2022-10-11T19:28:22.621Z,14.25
2022-10-11T19:30:53.838Z,14.27
2022-10-11T19:33:36.417Z,14.28
2022-10-11T19:36:12.378Z,14.28
2022-10-11T19:38:45.327Z,14.29
2022-10-11T19:41:20.751Z,14.29
2022-10-11T19:43:55.454Z,14.29
2022-10-11T19:49:20.465Z,14.30
2022-10-11T19:51:55.725Z,14.30
2022-10-11T19:54:23.974Z,14.28
2022-10-11T19:56:56.314Z,14.24
2022-10-11T20:01:54.828Z,14.22
2022-10-11T20:04:50.447Z,14.23
2022-10-11T20:07:12.113Z,14.25
2022-10-11T20:09:45.515Z,14.24
2022-10-11T20:12:13.374Z,14.24
2022-10-11T20:14:50.366Z,14.23
2022-10-11T20:17:19.594Z,14.22
2022-10-11T20:19:47.758Z,14.22
2022-10-11T20:22:18.514Z,14.23
2022-10-11T20:24:47.715Z,14.24
2022-10-11T20:27:15.801Z,14.24
2022-10-11T20:29:47.258Z,14.26
2022-10-11T20:32:15.327Z,14.29
2022-10-11T20:34:45.193Z,14.31
2022-10-11T20:37:13.251Z,14.26
2022-10-11T20:39:41.197Z,14.28
2022-10-11T20:42:09.285Z,14.27
2022-10-11T20:44:37.083Z,14.27
2022-10-11T20:47:05.078Z,14.28
2022-10-11T20:49:32.841Z,14.33
2022-10-11T20:52:01.992Z,14.31
2022-10-11T20:54:30.589Z,14.30
2022-10-11T20:56:59.245Z,14.30
2022-10-11T20:59:27.095Z,14.30
2022-10-11T21:01:54.889Z,14.33
2022-10-11T21:04:22.674Z,14.30
2022-10-11T21:06:50.746Z,14.31
2022-10-11T21:09:20.124Z,14.29
2022-10-11T21:11:47.922Z,14.28
2022-10-11T21:14:15.680Z,14.26
2022-10-11T21:16:43.452Z,14.22
2022-10-11T21:19:14.536Z,14.13
2022-10-11T21:21:42.784Z,14.10
2022-10-11T21:24:10.550Z,14.06
2022-10-11T21:26:39.835Z,14.02
2022-10-11T21:29:08.457Z,14.03
2022-10-11T21:31:36.662Z,14.04
2022-10-11T21:34:05.433Z,14.01
2022-10-11T21:36:33.191Z,14.04
2022-10-11T21:39:01.229Z,14.08
2022-10-11T21:41:30.320Z,14.11
2022-10-11T21:43:59.662Z,14.14
2022-10-11T21:46:54.020Z,14.16
2022-10-11T21:49:17.819Z,14.21
2022-10-11T21:51:46.134Z,14.23
2022-10-11T21:54:13.900Z,14.22
2022-10-11T21:56:42.202Z,14.22
2022-10-11T21:59:12.642Z,14.23
2022-10-11T22:01:41.357Z,14.22
2022-10-11T22:04:09.245Z,14.19
2022-10-11T22:06:37.886Z,14.14
2022-10-11T22:09:06.779Z,14.14
2022-10-11T22:11:34.599Z,14.14
2022-10-11T22:14:02.369Z,14.18
2022-10-11T22:16:31.810Z,14.21
2022-10-11T22:19:00.045Z,14.23
2022-10-11T22:21:27.819Z,14.25
2022-10-11T22:23:55.710Z,14.25
2022-10-11T22:26:25.695Z,14.25
2022-10-11T22:28:54.254Z,14.26
2022-10-11T22:31:23.449Z,14.25
2022-10-11T22:33:55.911Z,14.23
2022-10-11T22:36:24.928Z,14.21
2022-10-11T22:38:53.609Z,14.24
2022-10-11T22:41:21.446Z,14.25
2022-10-11T22:43:49.329Z,14.25
2022-10-11T22:46:17.491Z,14.26
2022-10-11T22:48:45.242Z,14.28
2022-10-11T22:51:14.604Z,14.30
2022-10-11T22:53:42.422Z,14.25
2022-10-11T22:56:11.182Z,14.21
2022-10-11T22:58:39.026Z,14.18
2022-10-11T23:01:10.805Z,14.17
2022-10-11T23:03:38.919Z,14.19
2022-10-11T23:06:06.949Z,14.19
2022-10-11T23:08:36.071Z,14.20
2022-10-11T23:11:05.262Z,14.18
2022-10-11T23:13:33.142Z,14.19
2022-10-11T23:16:01.070Z,14.18
2022-10-11T23:18:28.829Z,14.25
2022-10-11T23:20:56.605Z,14.14
2022-10-11T23:23:24.372Z,14.13
2022-10-11T23:26:02.997Z,14.14
2022-10-11T23:28:30.994Z,14.14
2022-10-11T23:30:58.847Z,14.13
2022-10-11T23:33:26.752Z,14.15
2022-10-11T23:35:54.533Z,14.11
2022-10-11T23:38:22.280Z,14.08
2022-10-11T23:40:50.071Z,14.05
2022-10-11T23:43:19.221Z,14.04
2022-10-11T23:45:46.958Z,14.04
2022-10-11T23:48:14.773Z,14.05
2022-10-11T23:50:43.344Z,14.05
2022-10-11T23:53:13.540Z,14.03
2022-10-11T23:55:41.459Z,13.97
2022-10-11T23:58:09.280Z,13.93
